Portada
METAR-TAF:

METAR-TAF

Aeroports :

Jesaq, Iran

latitud: 26-38N, longitud: 057-46E, altitud: 3 m

Observació

L'informe es va fer fa 1 hora i 33 minuts, a les 00:00 UTC
Vent 17 kt del Est
Temperatura 30°C
Humitat 84%
Pressió 998 hPa
Visibilitat: 5000 m
Núvols disperses a una alçada de 1500 ft
boirina

METAR: OIZJ 200000Z 10017KT 5000 BR SCT015 30/27 Q0998

Hora: 06:03 (01:33 UTC)


TAF: manca

Observacions i pronòstics meteorològics de més de 4000 aeroports (METAR i TAF).

Les estacions disponibles són els punts grocs i vermells al mapa.

Posi el ratolí al punt desitjat per veure el nom de l'estació.

Feu clic per veure les observacions i els pronòstics meteorològics.

Per canviar el mapa: feu clic els botons verds amb una creu de color negre per apropar; al botó verd amb un guió per allunyar la imatge; o en les fletxes verdes per a mapes adjacents.


METAR-TAF: